Time;durP1;ratioP1;P1;durP2;ratioP2;P2;SDS_P1;SDS_P2;PMS_P1;PMS_P2;Temp;Humidity;BMP_temperature;BMP_pressure;BME280_temperature;BME280_humidity;BME280_pressure;Samples;Min_cycle;Max_cycle;Signal;HPM_P1;HPM_P2
2023/06/02 00:01:40;;;;;;;11.97;2.10;;;13.40;1.00;;;;;;5111850;28;20233;-85
2023/06/02 00:04:05;;;;;;;11.03;2.00;;;13.40;1.00;;;;;;5112674;28;20176;-83
2023/06/02 00:06:32;;;;;;;12.40;2.23;;;13.30;1.00;;;;;;5113129;28;20198;-84
2023/06/02 00:08:58;;;;;;;10.10;2.33;;;13.50;1.00;;;;;;5113331;28;20171;-84
2023/06/02 00:11:25;;;;;;;8.97;1.63;;;13.40;1.00;;;;;;5094024;28;20472;-85
2023/06/02 00:13:53;;;;;;;9.03;1.80;;;13.40;1.00;;;;;;5112546;28;20216;-84
2023/06/02 00:16:18;;;;;;;7.53;1.80;;;13.40;1.00;;;;;;5111620;28;20424;-83
2023/06/02 00:18:44;;;;;;;11.73;1.53;;;13.40;1.00;;;;;;5112382;28;20423;-84
2023/06/02 00:21:09;;;;;;;1.97;0.97;;;13.40;1.00;;;;;;5112822;28;20174;-83
2023/06/02 00:23:35;;;;;;;9.60;1.70;;;12.00;1.00;;;;;;5112579;28;20204;-83
2023/06/02 00:26:02;;;;;;;14.13;1.57;;;13.60;1.00;;;;;;5112645;28;20169;-84
2023/06/02 00:28:28;;;;;;;12.73;1.97;;;13.40;1.00;;;;;;5112651;28;20315;-89
2023/06/02 00:30:54;;;;;;;6.63;1.33;;;13.50;1.00;;;;;;5112859;28;20556;-88
2023/06/02 00:33:19;;;;;;;14.20;2.30;;;13.60;1.00;;;;;;5112364;28;20464;-84
2023/06/02 00:35:46;;;;;;;6.40;1.60;;;13.60;1.00;;;;;;5111353;28;20176;-84
2023/06/02 00:38:11;;;;;;;9.67;1.97;;;13.60;1.00;;;;;;5112535;28;20181;-83
2023/06/02 00:40:37;;;;;;;9.67;2.00;;;13.60;1.00;;;;;;5112491;28;20425;-83
2023/06/02 00:43:02;;;;;;;10.07;1.27;;;13.60;1.00;;;;;;5112476;28;20173;-83
2023/06/02 00:45:28;;;;;;;15.07;2.13;;;13.60;1.00;;;;;;5112905;28;20176;-81
2023/06/02 00:47:55;;;;;;;8.70;1.50;;;13.50;1.20;;;;;;5113313;28;20235;-81
2023/06/02 00:50:21;;;;;;;9.30;2.10;;;13.50;12.40;;;;;;5113137;28;20233;-82
2023/06/02 00:52:51;;;;;;;9.83;2.10;;;13.60;19.00;;;;;;5113375;28;20416;-82
2023/06/02 00:55:17;;;;;;;11.10;1.87;;;13.70;4.80;;;;;;5113426;28;20449;-81
2023/06/02 00:57:42;;;;;;;4.80;1.07;;;13.70;1.00;;;;;;5113440;28;20826;-81
2023/06/02 01:00:11;;;;;;;11.27;2.60;;;13.70;11.00;;;;;;5113230;28;20267;-80
2023/06/02 01:02:40;;;;;;;11.40;1.60;;;13.70;15.40;;;;;;5113408;28;20167;-80
2023/06/02 01:05:10;;;;;;;6.23;2.50;;;13.70;17.70;;;;;;5094785;28;20420;-79
2023/06/02 01:07:39;;;;;;;15.43;3.10;;;13.70;29.80;;;;;;5113976;28;20758;-81
2023/06/02 01:10:06;;;;;;;8.23;2.43;;;13.60;24.50;;;;;;5117354;28;20816;-81
2023/06/02 01:12:32;;;;;;;11.40;2.20;;;13.60;29.00;;;;;;5099214;28;21008;-81
2023/06/02 01:14:58;;;;;;;6.90;1.90;;;13.50;30.40;;;;;;5117479;28;20502;-81
2023/06/02 01:17:35;;;;;;;8.50;2.40;;;13.50;41.60;;;;;;5117318;28;20164;-81
2023/06/02 01:20:10;;;;;;;10.83;3.30;;;13.80;35.40;;;;;;5117047;28;20488;-82
2023/06/02 01:23:01;;;;;;;15.57;4.33;;;13.50;46.10;;;;;;5117229;28;20452;-81
2023/06/02 01:25:27;;;;;;;12.60;3.10;;;13.50;42.00;;;;;;5117273;28;20774;-80
2023/06/02 01:27:57;;;;;;;8.17;1.50;;;13.50;32.50;;;;;;5117248;28;20418;-81
2023/06/02 01:30:23;;;;;;;8.27;1.93;;;13.50;4.40;;;;;;5117173;28;20546;-82
2023/06/02 01:32:58;;;;;;;7.47;2.63;;;13.50;3.20;;;;;;5117028;28;20405;-81
2023/06/02 01:35:30;;;;;;;6.70;1.80;;;13.40;3.50;;;;;;5116712;28;21008;-81
2023/06/02 01:37:58;;;;;;;6.00;1.77;;;13.40;1.10;;;;;;5117024;28;20409;-81
2023/06/02 01:40:25;;;;;;;6.50;2.03;;;13.40;8.20;;;;;;5116932;28;20423;-81
2023/06/02 01:42:53;;;;;;;6.63;1.67;;;13.40;6.80;;;;;;5116824;28;20839;-81
2023/06/02 01:45:21;;;;;;;7.03;2.03;;;13.30;18.20;;;;;;5116992;28;20409;-82
2023/06/02 01:47:48;;;;;;;8.60;1.93;;;13.30;20.50;;;;;;5116847;28;20772;-82
2023/06/02 01:50:14;;;;;;;12.20;2.70;;;13.30;15.20;;;;;;5098011;28;20463;-82
2023/06/02 01:52:40;;;;;;;6.83;2.33;;;13.30;9.10;;;;;;5116733;28;20416;-81
2023/06/02 01:55:06;;;;;;;13.67;2.63;;;13.20;10.50;;;;;;5116629;28;20168;-82
2023/06/02 01:57:33;;;;;;;8.57;2.67;;;13.30;19.60;;;;;;5116622;28;20223;-82
2023/06/02 01:59:58;;;;;;;9.97;2.97;;;13.20;24.90;;;;;;5116400;28;20457;-81
2023/06/02 02:02:24;;;;;;;9.53;2.93;;;13.20;29.30;;;;;;5116578;28;20420;-81
2023/06/02 02:05:10;;;;;;;9.83;1.40;;;13.10;48.30;;;;;;5116118;28;20639;-81
2023/06/02 02:07:36;;;;;;;10.47;2.40;;;13.20;50.50;;;;;;5116213;28;20699;-82
2023/06/02 02:10:02;;;;;;;6.10;1.97;;;13.20;36.90;;;;;;5116246;28;20483;-81
2023/06/02 02:12:28;;;;;;;7.47;1.90;;;13.20;40.00;;;;;;5098171;28;20443;-83
2023/06/02 02:14:56;;;;;;;5.97;2.33;;;13.10;56.60;;;;;;5116256;28;20460;-82
2023/06/02 02:17:24;;;;;;;9.43;2.50;;;13.10;69.50;;;;;;5116303;28;20170;-82
2023/06/02 02:19:50;;;;;;;6.83;3.03;;;13.10;56.10;;;;;;5115417;28;20439;-82
2023/06/02 02:22:16;;;;;;;11.50;3.27;;;13.10;55.30;;;;;;5116184;28;20420;-83
2023/06/02 02:24:42;;;;;;;8.97;2.30;;;13.10;52.80;;;;;;5116060;28;20416;-82
2023/06/02 02:27:08;;;;;;;7.93;2.67;;;13.00;59.00;;;;;;5116024;28;20435;-82
2023/06/02 02:29:35;;;;;;;11.87;1.57;;;13.00;61.50;;;;;;5097654;28;20719;-82
2023/06/02 02:32:00;;;;;;;7.37;1.90;;;13.00;75.80;;;;;;5115843;28;20427;-82
2023/06/02 02:34:26;;;;;;;7.83;3.20;;;13.00;66.00;;;;;;5115591;28;20498;-82
2023/06/02 02:36:52;;;;;;;8.63;2.47;;;13.00;61.30;;;;;;5116003;28;20178;-81
2023/06/02 02:39:18;;;;;;;7.03;1.00;;;13.00;53.00;;;;;;5115899;28;20171;-82
2023/06/02 02:41:43;;;;;;;10.67;4.33;;;13.00;60.10;;;;;;5115825;28;20650;-83
2023/06/02 02:44:09;;;;;;;7.67;1.73;;;13.00;79.90;;;;;;5097450;28;20336;-81
2023/06/02 02:46:34;;;;;;;7.73;2.30;;;13.00;84.90;;;;;;5115759;28;20187;-81
2023/06/02 02:49:00;;;;;;;10.03;1.77;;;12.90;63.70;;;;;;5115296;28;20508;-81
2023/06/02 02:51:25;;;;;;;9.30;1.43;;;12.70;56.80;;;;;;5115550;28;20209;-81
2023/06/02 02:53:51;;;;;;;7.50;3.03;;;12.60;64.80;;;;;;5115551;28;20177;-82
2023/06/02 02:56:16;;;;;;;13.40;2.73;;;12.60;67.40;;;;;;5115504;28;20165;-81
2023/06/02 02:58:42;;;;;;;12.97;2.93;;;12.30;77.40;;;;;;5115473;28;20234;-82
2023/06/02 03:01:15;;;;;;;3.10;1.70;;;12.40;90.50;;;;;;5115368;28;20213;-81
2023/06/02 03:03:41;;;;;;;8.90;2.23;;;12.30;99.90;;;;;;5115159;28;20697;-81
2023/06/02 03:06:07;;;;;;;10.50;3.13;;;12.20;99.90;;;;;;5115317;28;20453;-81
2023/06/02 03:08:32;;;;;;;12.50;3.80;;;12.30;99.90;;;;;;5115235;28;20419;-81
2023/06/02 03:10:58;;;;;;;10.83;2.50;;;12.20;99.90;;;;;;5115075;28;20621;-84
2023/06/02 03:13:24;;;;;;;7.77;1.57;;;12.20;99.90;;;;;;5115053;28;20166;-81
2023/06/02 03:15:50;;;;;;;12.23;2.60;;;12.20;99.90;;;;;;5115119;28;20209;-83
2023/06/02 03:18:16;;;;;;;8.67;1.53;;;12.10;99.90;;;;;;5114750;28;20171;-81
2023/06/02 03:20:41;;;;;;;7.33;1.93;;;12.10;99.90;;;;;;5115001;28;20444;-81
2023/06/02 03:23:09;;;;;;;8.67;2.20;;;12.10;99.90;;;;;;5115006;28;20458;-81
2023/06/02 03:25:35;;;;;;;6.00;1.50;;;12.10;99.90;;;;;;5114968;28;20172;-81
2023/06/02 03:28:00;;;;;;;6.33;2.10;;;12.00;99.90;;;;;;5114894;28;21035;-81
2023/06/02 03:30:26;;;;;;;9.13;1.50;;;11.90;99.90;;;;;;5113973;28;20214;-80
2023/06/02 03:32:52;;;;;;;9.53;2.60;;;12.00;99.90;;;;;;5113675;28;20444;-80
2023/06/02 03:35:17;;;;;;;6.53;1.60;;;12.00;99.90;;;;;;5114405;28;20167;-81
2023/06/02 03:37:43;;;;;;;8.23;1.70;;;12.20;99.90;;;;;;5114705;28;20176;-80
2023/06/02 03:40:09;;;;;;;6.63;2.60;;;12.20;99.90;;;;;;5096343;28;20651;-82
2023/06/02 03:42:35;;;;;;;8.53;2.00;;;12.20;99.90;;;;;;5114586;28;20315;-84
2023/06/02 03:45:02;;;;;;;7.10;2.80;;;12.10;99.90;;;;;;5114522;28;20451;-80
2023/06/02 03:47:27;;;;;;;8.60;2.70;;;12.10;99.90;;;;;;5131337;27;20422;-81
2023/06/02 03:49:53;;;;;;;10.63;2.77;;;12.10;99.90;;;;;;5134614;27;20469;-80
2023/06/02 03:52:18;;;;;;;6.20;2.30;;;12.10;99.90;;;;;;5134988;27;20254;-84
2023/06/02 03:54:44;;;;;;;7.27;2.63;;;12.10;99.90;;;;;;5134943;27;20220;-82
2023/06/02 03:57:09;;;;;;;8.33;2.90;;;12.10;99.90;;;;;;5134897;27;20636;-81
2023/06/02 03:59:35;;;;;;;10.50;2.47;;;12.10;99.90;;;;;;5134570;27;20246;-82
2023/06/02 04:02:01;;;;;;;8.73;1.93;;;12.10;99.90;;;;;;5134808;27;20181;-82
2023/06/02 04:04:26;;;;;;;6.90;2.20;;;12.10;99.90;;;;;;5134337;27;20503;-81
2023/06/02 04:06:53;;;;;;;12.13;2.43;;;12.00;99.90;;;;;;5134677;27;20171;-81
2023/06/02 04:09:18;;;;;;;16.03;2.50;;;12.10;99.90;;;;;;5134687;27;20185;-82
2023/06/02 04:11:44;;;;;;;15.70;1.87;;;12.20;99.90;;;;;;5133177;27;20494;-81
2023/06/02 04:14:10;;;;;;;10.70;1.67;;;12.20;99.90;;;;;;5113888;28;20171;-81
2023/06/02 04:16:35;;;;;;;6.33;1.40;;;12.20;99.90;;;;;;5113937;28;20698;-80
2023/06/02 04:19:01;;;;;;;5.63;2.00;;;12.20;99.90;;;;;;5113586;28;20214;-82
2023/06/02 04:21:26;;;;;;;7.63;2.20;;;12.20;99.90;;;;;;5113856;28;20220;-80
2023/06/02 04:23:52;;;;;;;10.83;3.13;;;12.30;99.90;;;;;;5095561;28;20832;-83
2023/06/02 04:26:17;;;;;;;5.40;2.30;;;12.30;99.90;;;;;;5113864;28;20173;-81
2023/06/02 04:28:43;;;;;;;5.87;2.60;;;12.40;99.90;;;;;;5113764;28;20625;-80
2023/06/02 04:31:11;;;;;;;9.20;1.87;;;12.40;99.90;;;;;;5113655;28;20211;-82
2023/06/02 04:33:37;;;;;;;10.67;2.00;;;12.40;99.90;;;;;;5113430;28;20170;-81
2023/06/02 04:36:03;;;;;;;7.50;2.00;;;12.50;99.90;;;;;;5113710;28;20420;-83
2023/06/02 04:38:29;;;;;;;9.27;1.40;;;12.50;99.90;;;;;;5113650;28;20412;-83
2023/06/02 04:40:56;;;;;;;6.40;1.83;;;12.50;99.90;;;;;;5113554;28;20410;-81
2023/06/02 04:43:22;;;;;;;9.43;1.70;;;12.30;99.90;;;;;;5113469;28;20415;-81
2023/06/02 04:45:47;;;;;;;7.93;2.00;;;12.60;99.90;;;;;;5113595;28;20417;-80
2023/06/02 04:48:13;;;;;;;8.17;2.47;;;12.60;99.90;;;;;;5109816;28;20450;-83
2023/06/02 04:50:39;;;;;;;9.73;1.80;;;12.70;99.90;;;;;;5104156;28;20207;-80
2023/06/02 04:53:05;;;;;;;6.50;2.37;;;12.70;99.90;;;;;;5103671;28;20917;-85
2023/06/02 04:55:31;;;;;;;9.60;3.00;;;12.80;99.90;;;;;;5101738;28;20679;-81
2023/06/02 04:57:56;;;;;;;6.70;1.63;;;12.80;99.90;;;;;;5102411;28;20197;-81
2023/06/02 05:00:22;;;;;;;7.70;1.87;;;12.90;99.90;;;;;;5103299;28;20461;-82
2023/06/02 05:02:47;;;;;;;11.50;2.23;;;13.10;99.90;;;;;;5082707;28;20280;-80
2023/06/02 05:05:13;;;;;;;4.73;1.20;;;12.90;99.90;;;;;;5100268;28;20250;-80
2023/06/02 05:07:38;;;;;;;5.00;1.80;;;13.10;99.90;;;;;;5081138;28;20214;-80
2023/06/02 05:10:04;;;;;;;4.50;1.20;;;13.10;99.90;;;;;;5100317;28;20314;-81
2023/06/02 05:12:32;;;;;;;8.47;1.33;;;13.20;99.90;;;;;;5103461;28;20632;-81
2023/06/02 05:15:01;;;;;;;5.93;3.50;;;13.10;99.90;;;;;;5099625;28;20784;-80
2023/06/02 05:17:27;;;;;;;4.90;1.70;;;13.30;99.90;;;;;;5111009;28;20421;-80
2023/06/02 05:19:53;;;;;;;8.73;2.07;;;13.40;99.90;;;;;;5085783;28;20439;-81
2023/06/02 05:22:19;;;;;;;10.53;1.80;;;13.40;99.90;;;;;;5103106;28;20410;-82
2023/06/02 05:24:45;;;;;;;10.57;1.90;;;13.80;99.90;;;;;;5083260;28;20659;-81
2023/06/02 05:27:10;;;;;;;6.23;1.00;;;13.60;99.90;;;;;;5103223;28;20415;-80
2023/06/02 05:29:36;;;;;;;5.03;1.80;;;13.70;99.90;;;;;;5110783;28;20591;-81
2023/06/02 05:32:01;;;;;;;4.13;0.97;;;13.90;99.90;;;;;;5093666;28;20211;-80
2023/06/02 05:34:27;;;;;;;9.90;2.27;;;14.00;99.90;;;;;;5092413;28;20582;-80
2023/06/02 05:36:53;;;;;;;8.57;2.30;;;14.20;99.90;;;;;;5092785;28;20165;-80
2023/06/02 05:39:18;;;;;;;4.20;1.13;;;14.30;99.90;;;;;;5074534;28;20414;-80
2023/06/02 05:41:44;;;;;;;6.73;1.27;;;14.50;99.90;;;;;;5092598;28;20172;-80
2023/06/02 05:44:09;;;;;;;5.23;1.33;;;14.50;99.90;;;;;;5092644;28;20573;-81
2023/06/02 05:46:36;;;;;;;4.93;2.80;;;14.70;99.90;;;;;;5092423;28;20165;-81
2023/06/02 05:49:02;;;;;;;7.03;2.27;;;14.90;99.90;;;;;;5092239;28;20169;-80
2023/06/02 05:51:27;;;;;;;6.33;1.40;;;15.00;99.90;;;;;;5092376;28;20474;-81
2023/06/02 05:53:53;;;;;;;4.80;0.73;;;15.30;99.90;;;;;;5093473;28;20167;-80
2023/06/02 05:56:18;;;;;;;8.33;2.53;;;15.30;99.90;;;;;;5096200;28;20264;-80
2023/06/02 05:58:46;;;;;;;10.27;2.60;;;15.40;99.90;;;;;;5096243;28;20240;-80
2023/06/02 06:01:12;;;;;;;4.50;1.60;;;15.50;99.90;;;;;;5095940;28;20232;-80
2023/06/02 06:03:37;;;;;;;7.23;1.33;;;15.70;99.90;;;;;;5095715;28;20913;-85
2023/06/02 06:06:03;;;;;;;7.63;2.10;;;15.80;91.80;;;;;;5077922;28;20420;-80
2023/06/02 06:08:29;;;;;;;5.23;1.80;;;16.00;59.70;;;;;;5096002;28;20163;-80
2023/06/02 06:10:54;;;;;;;8.00;2.00;;;16.00;28.00;;;;;;5095934;28;20575;-81
2023/06/02 06:13:20;;;;;;;4.23;1.00;;;16.10;10.40;;;;;;5095843;28;20259;-81
2023/06/02 06:15:47;;;;;;;7.83;1.60;;;16.10;1.00;;;;;;5095870;28;20165;-82
2023/06/02 06:18:13;;;;;;;3.80;1.47;;;16.20;1.00;;;;;;5095500;28;20228;-82
2023/06/02 06:20:41;;;;;;;3.57;1.20;;;16.20;1.00;;;;;;5095848;28;20408;-81
2023/06/02 06:23:06;;;;;;;10.20;2.13;;;16.20;1.00;;;;;;5095645;28;20240;-83
2023/06/02 06:25:32;;;;;;;7.47;1.20;;;16.20;1.00;;;;;;5095756;28;20834;-81
2023/06/02 06:27:58;;;;;;;8.27;2.73;;;16.20;1.00;;;;;;5095669;28;20177;-81
2023/06/02 06:30:24;;;;;;;10.53;2.93;;;16.20;1.00;;;;;;5095585;28;20545;-81
2023/06/02 06:32:49;;;;;;;5.67;1.80;;;16.20;1.00;;;;;;5095376;28;20418;-82
2023/06/02 06:35:15;;;;;;;6.63;2.43;;;16.30;1.00;;;;;;5095581;28;20670;-82
2023/06/02 06:37:40;;;;;;;5.97;1.97;;;16.40;1.00;;;;;;5095556;28;20185;-82
2023/06/02 06:40:06;;;;;;;5.57;1.70;;;16.50;1.00;;;;;;5095482;28;20201;-83
2023/06/02 06:42:32;;;;;;;11.13;2.33;;;16.60;1.00;;;;;;5095348;28;20517;-81
2023/06/02 06:44:57;;;;;;;3.03;1.23;;;16.60;1.00;;;;;;5095261;28;20423;-80
2023/06/02 06:47:23;;;;;;;7.77;2.20;;;16.60;1.00;;;;;;5095330;28;20701;-79
2023/06/02 06:49:50;;;;;;;4.47;1.67;;;16.60;1.00;;;;;;5094847;28;20210;-79
2023/06/02 06:52:15;;;;;;;10.20;1.87;;;16.60;1.00;;;;;;5095242;28;20546;-79
2023/06/02 06:54:40;;;;;;;6.47;2.10;;;16.70;1.00;;;;;;5094971;28;20418;-79
2023/06/02 06:57:06;;;;;;;11.57;3.03;;;16.80;1.00;;;;;;5095131;28;20174;-84
2023/06/02 06:59:32;;;;;;;7.47;2.93;;;16.80;1.00;;;;;;5094907;28;20195;-80
2023/06/02 07:01:57;;;;;;;7.67;3.90;;;16.90;1.00;;;;;;5095032;28;20274;-80
2023/06/02 07:04:22;;;;;;;5.90;1.80;;;16.80;1.00;;;;;;5094175;28;20166;-80
2023/06/02 07:06:48;;;;;;;9.40;1.93;;;16.90;1.00;;;;;;5093561;28;20180;-80
2023/06/02 07:09:15;;;;;;;7.57;3.40;;;16.90;1.00;;;;;;5094802;28;20622;-81
2023/06/02 07:11:40;;;;;;;5.73;3.50;;;16.90;1.00;;;;;;5094771;28;20263;-81
2023/06/02 07:14:06;;;;;;;5.73;2.57;;;16.90;1.00;;;;;;5094780;28;20971;-82
2023/06/02 07:16:31;;;;;;;4.73;1.93;;;16.80;1.00;;;;;;5094787;28;20662;-81
2023/06/02 07:18:57;;;;;;;8.60;2.07;;;16.70;1.00;;;;;;5094313;28;20260;-81
2023/06/02 07:21:23;;;;;;;7.90;2.73;;;16.60;1.00;;;;;;5094646;28;20186;-82
2023/06/02 07:23:48;;;;;;;8.50;2.97;;;16.80;1.00;;;;;;5094565;28;20412;-82
2023/06/02 07:26:15;;;;;;;6.13;2.80;;;16.90;1.00;;;;;;5094514;28;20172;-82
2023/06/02 07:28:40;;;;;;;5.57;2.17;;;16.90;1.00;;;;;;5094495;28;20285;-82
2023/06/02 07:31:06;;;;;;;6.33;2.30;;;17.00;1.00;;;;;;5094367;28;20492;-81
2023/06/02 07:33:31;;;;;;;4.87;2.50;;;17.00;1.00;;;;;;5093931;28;20171;-82
2023/06/02 07:35:56;;;;;;;6.30;2.63;;;17.00;1.00;;;;;;5094426;28;20178;-81
2023/06/02 07:38:22;;;;;;;4.03;2.20;;;17.10;1.00;;;;;;5094336;28;20194;-82
2023/06/02 07:40:48;;;;;;;5.57;2.33;;;17.20;1.00;;;;;;5094255;28;20543;-82
2023/06/02 07:43:13;;;;;;;4.77;2.30;;;17.30;1.00;;;;;;5094268;28;20185;-82
2023/06/02 07:45:39;;;;;;;7.37;2.27;;;17.40;1.00;;;;;;5094244;28;20528;-81
2023/06/02 07:48:04;;;;;;;6.20;2.43;;;17.40;1.00;;;;;;5093799;28;20627;-80
2023/06/02 07:50:30;;;;;;;4.40;1.80;;;17.50;1.00;;;;;;5094067;28;20214;-81
2023/06/02 07:52:55;;;;;;;3.70;1.60;;;17.60;1.00;;;;;;5094132;28;20646;-79
2023/06/02 07:55:21;;;;;;;4.57;2.97;;;17.70;1.00;;;;;;5094037;28;20172;-80
2023/06/02 07:57:46;;;;;;;3.23;1.20;;;17.90;1.00;;;;;;5093931;28;20190;-80
2023/06/02 08:00:14;;;;;;;3.53;1.90;;;18.10;1.00;;;;;;5093772;28;20227;-79
2023/06/02 08:02:46;;;;;;;5.60;2.13;;;18.30;99.90;;;;;;5093723;28;20261;-81
2023/06/02 08:05:12;;;;;;;4.40;1.60;;;18.40;99.90;;;;;;5093955;28;20754;-80
2023/06/02 08:07:38;;;;;;;4.60;1.50;;;18.40;99.90;;;;;;5103515;28;20466;-84
2023/06/02 08:10:05;;;;;;;4.70;1.90;;;18.50;99.90;;;;;;5103914;28;20459;-81
2023/06/02 08:12:30;;;;;;;4.87;3.03;;;18.70;1.00;;;;;;5075670;28;20808;-81
2023/06/02 08:14:56;;;;;;;2.70;1.37;;;18.70;99.90;;;;;;5074956;28;20478;-84
2023/06/02 08:17:21;;;;;;;5.90;2.00;;;18.70;1.00;;;;;;5092833;28;20188;-80
2023/06/02 08:19:47;;;;;;;5.73;2.20;;;18.70;1.00;;;;;;5075474;28;20224;-79
2023/06/02 08:22:12;;;;;;;3.20;1.93;;;18.60;99.90;;;;;;5093738;28;20232;-80
2023/06/02 08:24:38;;;;;;;5.23;2.27;;;18.60;1.00;;;;;;5075547;28;20253;-80
2023/06/02 08:27:04;;;;;;;7.97;1.67;;;18.50;99.90;;;;;;5093796;28;20175;-80
2023/06/02 08:29:32;;;;;;;3.90;1.43;;;18.50;1.00;;;;;;5075422;28;20167;-80
2023/06/02 08:31:58;;;;;;;4.43;1.30;;;18.50;59.60;;;;;;5093412;28;20477;-80
2023/06/02 08:34:24;;;;;;;2.83;1.87;;;18.50;99.90;;;;;;5093042;28;20961;-79
2023/06/02 08:36:56;;;;;;;3.97;2.00;;;18.50;99.90;;;;;;5093444;28;20226;-82
2023/06/02 08:39:22;;;;;;;4.23;1.57;;;18.40;99.90;;;;;;5093325;28;20924;-85
2023/06/02 08:41:50;;;;;;;6.80;1.60;;;18.40;99.90;;;;;;5093361;28;20499;-80
2023/06/02 08:44:16;;;;;;;2.60;1.33;;;18.30;1.00;;;;;;5093286;28;20877;-80
2023/06/02 08:46:45;;;;;;;4.10;1.30;;;18.20;99.90;;;;;;5093255;28;20415;-80
2023/06/02 08:49:15;;;;;;;5.07;1.43;;;18.00;99.90;;;;;;5092815;28;20550;-80
2023/06/02 08:51:43;;;;;;;4.30;1.47;;;18.00;1.00;;;;;;5093161;28;20496;-79
2023/06/02 08:54:11;;;;;;;3.20;1.60;;;18.20;1.00;;;;;;5093266;28;20505;-80
2023/06/02 08:56:37;;;;;;;4.60;1.47;;;17.80;1.00;;;;;;5093239;28;20504;-82
2023/06/02 08:59:02;;;;;;;5.57;1.83;;;17.70;1.00;;;;;;5093165;28;20450;-81
2023/06/02 09:01:28;;;;;;;3.70;1.53;;;17.80;1.00;;;;;;5093073;28;20716;-80
2023/06/02 09:03:54;;;;;;;2.10;1.00;;;17.80;99.90;;;;;;5092764;28;20662;-79
2023/06/02 09:06:21;;;;;;;2.80;1.03;;;17.70;99.90;;;;;;5093114;28;20412;-80
2023/06/02 09:08:57;;;;;;;2.00;0.87;;;17.70;99.90;;;;;;5093087;28;20165;-80
2023/06/02 09:11:24;;;;;;;3.47;1.47;;;17.80;1.00;;;;;;5092983;28;20855;-81
2023/06/02 09:13:49;;;;;;;7.70;2.00;;;17.80;1.00;;;;;;5093025;28;20418;-83
2023/06/02 09:16:15;;;;;;;3.97;1.40;;;17.90;1.00;;;;;;5092960;28;20918;-80
2023/06/02 09:18:54;;;;;;;3.80;1.30;;;18.00;99.90;;;;;;5092636;28;20258;-80
2023/06/02 09:21:28;;;;;;;2.30;1.20;;;18.00;1.00;;;;;;5092897;28;20752;-79
2023/06/02 09:23:56;;;;;;;2.37;1.13;;;18.10;1.00;;;;;;5092910;28;20415;-80
2023/06/02 09:26:26;;;;;;;4.10;1.20;;;18.20;1.00;;;;;;5092806;28;20424;-79
2023/06/02 09:29:10;;;;;;;2.30;0.83;;;18.30;1.00;;;;;;5093849;28;20444;-79
2023/06/02 09:31:44;;;;;;;1.90;1.23;;;18.40;1.00;;;;;;5096706;28;20469;-79
2023/06/02 09:34:09;;;;;;;3.50;1.17;;;18.60;99.90;;;;;;5096451;28;20406;-79
2023/06/02 09:36:36;;;;;;;2.30;1.17;;;19.10;99.90;;;;;;5096582;28;20440;-79
2023/06/02 09:39:03;;;;;;;3.50;1.37;;;19.60;1.00;;;;;;5096641;28;20740;-79
2023/06/02 09:41:30;;;;;;;2.60;0.70;;;19.90;1.00;;;;;;5096563;28;20416;-80
2023/06/02 09:43:56;;;;;;;2.27;0.70;;;20.10;99.90;;;;;;5096543;28;20432;-79
2023/06/02 09:46:22;;;;;;;2.20;1.37;;;20.30;1.00;;;;;;5096524;28;20958;-79
2023/06/02 09:48:56;;;;;;;2.87;0.63;;;20.30;99.90;;;;;;5096055;28;20406;-79
2023/06/02 09:51:25;;;;;;;3.93;0.80;;;20.40;99.90;;;;;;5096235;28;20582;-79
2023/06/02 09:53:51;;;;;;;1.50;0.60;;;20.40;1.00;;;;;;5096526;28;20411;-79
2023/06/02 09:56:19;;;;;;;2.03;0.93;;;20.50;1.00;;;;;;5096230;28;20623;-79
2023/06/02 09:58:45;;;;;;;1.80;0.50;;;20.50;1.00;;;;;;5096256;28;20398;-79
2023/06/02 10:01:11;;;;;;;2.83;1.47;;;20.50;1.00;;;;;;5096162;28;20462;-78
2023/06/02 10:03:41;;;;;;;0.80;0.23;;;20.30;99.90;;;;;;5096173;28;20428;-90
2023/06/02 10:06:20;;;;;;;3.23;0.30;;;20.20;99.90;;;;;;5078235;28;20983;-88
2023/06/02 10:08:59;;;;;;;1.90;0.53;;;20.00;99.90;;;;;;5096249;28;20406;-78
2023/06/02 10:11:56;;;;;;;1.10;0.53;;;20.00;99.90;;;;;;5096090;28;20458;-88
2023/06/02 10:14:51;;;;;;;2.43;0.43;;;19.90;99.90;;;;;;5096090;28;20425;-79
2023/06/02 10:17:39;;;;;;;2.97;1.50;;;20.10;99.90;;;;;;5077481;28;20569;-79
2023/06/02 10:20:21;;;;;;;3.63;0.83;;;20.60;99.90;;;;;;5095939;28;20753;-78
2023/06/02 10:22:55;;;;;;;2.80;0.30;;;21.10;99.90;;;;;;5095964;28;20421;-87
2023/06/02 10:25:42;;;;;;;1.13;0.40;;;21.40;99.90;;;;;;5095775;28;20979;-81
2023/06/02 10:28:08;;;;;;;1.73;0.40;;;21.40;99.90;;;;;;5095780;28;20872;-78
2023/06/02 10:30:35;;;;;;;2.13;0.60;;;21.50;99.90;;;;;;5095546;28;20473;-79
2023/06/02 10:33:01;;;;;;;1.30;0.50;;;21.70;99.90;;;;;;5103931;28;20437;-79
2023/06/02 10:35:59;;;;;;;0.90;0.30;;;22.00;99.90;;;;;;5115977;28;20409;-78
2023/06/02 10:38:31;;;;;;;1.10;0.30;;;22.80;99.90;;;;;;5115979;28;20179;-78
2023/06/02 10:40:57;;;;;;;2.63;0.50;;;24.00;99.90;;;;;;5115599;28;20406;-79
2023/06/02 10:43:23;;;;;;;0.73;0.20;;;25.30;99.90;;;;;;5097575;28;20413;-80
2023/06/02 10:45:49;;;;;;;1.33;0.40;;;26.60;99.90;;;;;;5115794;28;20748;-80
2023/06/02 10:48:41;;;;;;;1.33;0.60;;;27.80;91.90;;;;;;5109403;28;20176;-81
2023/06/02 10:51:08;;;;;;;0.70;0.20;;;28.60;96.90;;;;;;5112081;28;20469;-80
2023/06/02 10:54:04;;;;;;;1.83;0.30;;;28.90;95.70;;;;;;5114509;28;20425;-79
2023/06/02 10:56:35;;;;;;;3.50;0.47;;;28.80;62.20;;;;;;5097599;28;20417;-80
2023/06/02 10:59:02;;;;;;;2.27;0.40;;;28.40;51.90;;;;;;5097650;28;20483;-81
2023/06/02 11:01:51;;;;;;;3.17;0.37;;;27.70;59.00;;;;;;5094850;28;20462;-80
2023/06/02 11:04:46;;;;;;;2.30;0.37;;;26.90;90.20;;;;;;5107681;28;20413;-83
2023/06/02 11:07:21;;;;;;;1.13;0.33;;;26.20;90.80;;;;;;5097703;28;20417;-83
2023/06/02 11:09:58;;;;;;;1.60;0.30;;;26.10;93.60;;;;;;5115318;28;20425;-78
2023/06/02 11:12:51;;;;;;;1.70;0.47;;;25.70;43.00;;;;;;5115108;28;20421;-80
2023/06/02 11:15:20;;;;;;;0.60;0.20;;;24.80;15.30;;;;;;5115151;28;20406;-81
2023/06/02 11:17:47;;;;;;;1.20;0.27;;;24.30;10.50;;;;;;5114763;28;20417;-79
2023/06/02 11:20:15;;;;;;;1.47;0.20;;;23.90;10.00;;;;;;5115095;28;20417;-79
2023/06/02 11:22:41;;;;;;;1.70;0.50;;;23.50;7.90;;;;;;5114928;28;20418;-79
2023/06/02 11:25:09;;;;;;;3.20;0.37;;;23.20;7.70;;;;;;5114871;28;20503;-79
2023/06/02 11:27:43;;;;;;;3.03;0.40;;;23.00;5.80;;;;;;5115028;28;20421;-79
2023/06/02 11:30:14;;;;;;;1.40;0.30;;;23.50;3.40;;;;;;5114932;28;20453;-86
2023/06/02 11:32:40;;;;;;;1.03;0.20;;;24.40;8.50;;;;;;5114589;28;20496;-80
2023/06/02 11:35:07;;;;;;;0.80;0.20;;;25.40;11.40;;;;;;5114777;28;20414;-79
2023/06/02 11:37:34;;;;;;;1.40;0.30;;;26.00;9.20;;;;;;5114687;28;21093;-78
2023/06/02 11:39:59;;;;;;;2.77;0.53;;;26.30;6.50;;;;;;5114815;28;20414;-86
2023/06/02 11:42:34;;;;;;;1.30;0.30;;;26.30;1.00;;;;;;5114519;28;20509;-80
2023/06/02 11:44:59;;;;;;;2.30;0.30;;;26.40;1.00;;;;;;5114706;28;20397;-79
2023/06/02 11:47:25;;;;;;;2.30;0.20;;;26.40;1.00;;;;;;5114249;28;20797;-80
2023/06/02 11:49:50;;;;;;;1.90;0.60;;;26.40;1.00;;;;;;5114502;28;20176;-79
2023/06/02 11:52:16;;;;;;;1.13;0.30;;;26.30;1.00;;;;;;5113756;28;20171;-84
2023/06/02 11:54:54;;;;;;;2.53;1.13;;;26.30;1.00;;;;;;5114492;28;20172;-84
2023/06/02 11:57:31;;;;;;;1.53;0.53;;;26.50;1.00;;;;;;5114487;28;20171;-79
2023/06/02 12:00:09;;;;;;;1.60;0.50;;;26.50;1.00;;;;;;5095932;28;20494;-79
2023/06/02 12:02:39;;;;;;;1.57;0.50;;;26.50;1.00;;;;;;5113785;28;20900;-79
2023/06/02 12:05:11;;;;;;;2.00;0.37;;;27.10;1.00;;;;;;5114209;28;20413;-81
2023/06/02 12:07:37;;;;;;;0.97;0.20;;;27.80;1.00;;;;;;5113873;28;20418;-80
2023/06/02 12:10:05;;;;;;;2.47;0.40;;;28.30;3.60;;;;;;5113895;28;20459;-80
2023/06/02 12:12:31;;;;;;;2.30;0.30;;;28.90;6.90;;;;;;5114110;28;20455;-81
2023/06/02 12:14:57;;;;;;;1.23;0.20;;;29.70;10.20;;;;;;5113941;28;20409;-83
2023/06/02 12:17:22;;;;;;;0.93;0.30;;;30.30;15.60;;;;;;5113480;28;20494;-84
2023/06/02 12:19:57;;;;;;;1.43;0.30;;;30.40;17.90;;;;;;5113704;28;20215;-83
2023/06/02 12:22:23;;;;;;;1.07;0.20;;;30.30;15.90;;;;;;5113736;28;20250;-86
2023/06/02 12:24:48;;;;;;;1.60;0.30;;;29.90;11.60;;;;;;5113785;28;20456;-81
2023/06/02 12:27:23;;;;;;;1.30;0.40;;;29.70;17.50;;;;;;5113692;28;20266;-87
2023/06/02 12:29:49;;;;;;;2.27;0.30;;;29.10;12.30;;;;;;5113664;28;20164;-81
2023/06/02 12:32:25;;;;;;;2.07;0.47;;;28.80;5.10;;;;;;5113397;28;20413;-80
2023/06/02 12:34:50;;;;;;;2.30;0.60;;;28.50;6.60;;;;;;5113630;28;20266;-81
2023/06/02 12:37:17;;;;;;;1.43;0.63;;;28.60;11.10;;;;;;5113541;28;20532;-79
2023/06/02 12:39:43;;;;;;;4.67;0.40;;;28.40;9.00;;;;;;5113498;28;20250;-79
2023/06/02 12:42:12;;;;;;;1.73;0.50;;;28.40;16.00;;;;;;5113515;28;20512;-80
2023/06/02 12:44:38;;;;;;;4.30;0.40;;;28.40;46.60;;;;;;5113370;28;20172;-78
2023/06/02 12:47:05;;;;;;;1.07;0.23;;;27.90;42.50;;;;;;5113247;28;20417;-79
2023/06/02 12:49:31;;;;;;;1.87;0.73;;;27.50;1.00;;;;;;5113463;28;20168;-78
2023/06/02 12:51:56;;;;;;;2.07;0.30;;;28.10;1.00;;;;;;5113293;28;20465;-79
2023/06/02 12:54:22;;;;;;;1.37;0.30;;;28.40;1.00;;;;;;5113431;28;20167;-78